createdAt,value
2019-05-09T02:02:08.822Z,83.82
2019-05-09T02:04:38.570Z,83.64
2019-05-09T02:07:09.659Z,83.73
2019-05-09T02:09:40.505Z,83.50
2019-05-09T02:12:14.153Z,83.61
2019-05-09T02:14:54.802Z,83.99
2019-05-09T02:17:58.207Z,84.15
2019-05-09T02:20:20.444Z,83.85
2019-05-09T02:22:51.392Z,83.68
2019-05-09T02:25:24.200Z,83.60
2019-05-09T02:27:55.321Z,83.70
2019-05-09T02:30:26.063Z,84.30
2019-05-09T02:32:56.752Z,84.73
2019-05-09T02:35:31.468Z,84.79
2019-05-09T02:37:59.877Z,84.86
2019-05-09T02:40:31.772Z,84.81
2019-05-09T02:43:03.843Z,84.90
2019-05-09T02:45:47.674Z,85.11
2019-05-09T02:48:18.390Z,85.61
2019-05-09T02:50:48.657Z,85.72
2019-05-09T02:53:19.537Z,85.97
2019-05-09T02:55:50.449Z,86.90
2019-05-09T02:58:22.811Z,87.91
2019-05-09T03:01:13.115Z,88.14
2019-05-09T03:03:43.854Z,88.17
2019-05-09T03:06:14.588Z,88.34
2019-05-09T03:08:45.285Z,88.54
2019-05-09T03:11:18.713Z,88.54
2019-05-09T03:13:49.604Z,88.36
2019-05-09T03:16:20.581Z,88.12
2019-05-09T03:18:52.309Z,87.93
2019-05-09T03:21:38.977Z,88.22
2019-05-09T03:24:10.755Z,88.31
2019-05-09T03:26:43.348Z,88.57
2019-05-09T03:29:23.274Z,88.75
2019-05-09T03:31:54.697Z,88.65
2019-05-09T03:34:25.626Z,88.68
2019-05-09T03:36:58.091Z,88.74
2019-05-09T03:39:29.321Z,88.29
2019-05-09T03:42:01.533Z,88.30
2019-05-09T03:44:32.346Z,88.55
2019-05-09T03:47:37.723Z,88.06
2019-05-09T03:50:14.220Z,88.05
2019-05-09T03:52:44.928Z,87.82
2019-05-09T03:55:20.229Z,87.92
2019-05-09T03:58:00.416Z,87.63
2019-05-09T04:00:31.145Z,87.26
2019-05-09T04:03:01.935Z,86.94
2019-05-09T04:05:32.685Z,87.06
2019-05-09T04:08:21.631Z,86.57
2019-05-09T04:10:53.602Z,86.66
2019-05-09T04:13:28.766Z,86.35
2019-05-09T04:15:59.654Z,86.12
2019-05-09T04:18:30.768Z,85.37
2019-05-09T04:21:01.798Z,84.39
2019-05-09T04:23:32.545Z,84.11
2019-05-09T04:26:18.913Z,83.68
2019-05-09T04:28:49.654Z,83.31
2019-05-09T04:31:20.385Z,83.06
2019-05-09T04:33:51.334Z,83.01
2019-05-09T04:36:38.599Z,82.75
2019-05-09T04:39:20.863Z,82.66
2019-05-09T04:41:44.567Z,82.58
2019-05-09T04:44:21.920Z,82.14
2019-05-09T04:46:54.267Z,81.88
2019-05-09T04:49:25.106Z,82.03
2019-05-09T04:51:58.251Z,82.36
2019-05-09T04:54:28.432Z,82.39
2019-05-09T04:56:59.203Z,81.80
2019-05-09T04:59:29.924Z,81.14
2019-05-09T05:02:24.545Z,79.48
2019-05-09T05:04:55.264Z,77.15
2019-05-09T05:07:28.525Z,75.51
2019-05-09T05:09:58.722Z,73.72
2019-05-09T05:12:29.807Z,73.14
2019-05-09T05:15:00.929Z,72.74
2019-05-09T05:17:31.641Z,71.71
2019-05-09T05:20:04.037Z,72.70
2019-05-09T05:22:40.907Z,73.51
2019-05-09T05:25:11.746Z,74.01
2019-05-09T05:27:42.643Z,74.27
2019-05-09T05:30:13.846Z,74.34
2019-05-09T05:33:00.782Z,73.91
2019-05-09T05:35:50.707Z,73.36
2019-05-09T05:38:21.413Z,73.72
2019-05-09T05:40:52.163Z,74.18
2019-05-09T05:43:22.847Z,74.29
2019-05-09T05:46:28.617Z,75.33
2019-05-09T05:48:59.365Z,75.21
2019-05-09T05:51:33.386Z,74.28
2019-05-09T05:54:04.171Z,74.14
2019-05-09T05:56:35.159Z,73.76
2019-05-09T05:59:08.379Z,73.90
2019-05-09T06:01:38.371Z,73.99
2019-05-09T06:04:10.184Z,74.54
2019-05-09T06:06:40.911Z,74.27
2019-05-09T06:09:11.811Z,73.79
2019-05-09T06:11:43.650Z,73.72
2019-05-09T06:14:14.341Z,73.87
2019-05-09T06:16:45.056Z,73.76
2019-05-09T06:19:17.853Z,74.06
2019-05-09T06:21:52.078Z,74.10
2019-05-09T06:24:21.827Z,74.05
2019-05-09T06:26:52.704Z,73.18
2019-05-09T06:29:23.409Z,72.91
2019-05-09T06:31:54.118Z,72.98
2019-05-09T06:34:25.193Z,73.14
2019-05-09T06:36:58.521Z,72.66
2019-05-09T06:39:29.051Z,72.74
2019-05-09T06:41:59.794Z,72.69
2019-05-09T06:45:01.987Z,72.44
2019-05-09T06:47:35.108Z,72.30
2019-05-09T06:50:08.756Z,72.25
2019-05-09T06:52:39.680Z,69.96
2019-05-09T06:55:12.083Z,64.36
2019-05-09T06:57:43.292Z,62.92
2019-05-09T07:00:21.816Z,59.66
2019-05-09T07:02:58.395Z,60.75
2019-05-09T07:06:03.826Z,61.88
2019-05-09T07:08:53.769Z,62.93
2019-05-09T07:11:24.479Z,60.58
2019-05-09T07:13:55.314Z,63.42
2019-05-09T07:16:27.652Z,60.95
2019-05-09T07:18:58.503Z,61.88
2019-05-09T07:21:48.555Z,64.15
2019-05-09T07:24:20.239Z,62.72
2019-05-09T07:26:50.941Z,63.79
2019-05-09T07:29:21.838Z,63.89
2019-05-09T07:31:57.607Z,64.80
2019-05-09T07:34:33.181Z,64.36
2019-05-09T07:37:03.888Z,64.23
2019-05-09T07:39:34.623Z,63.66
2019-05-09T07:42:07.533Z,63.13
2019-05-09T07:44:46.303Z,62.12
2019-05-09T07:47:10.120Z,59.99
2019-05-09T07:49:40.856Z,59.66
2019-05-09T07:52:11.553Z,60.75
2019-05-09T07:54:42.269Z,58.87
2019-05-09T07:57:13.273Z,59.50
2019-05-09T07:59:43.999Z,59.16
2019-05-09T08:02:14.797Z,59.23
2019-05-09T08:04:45.829Z,58.58
2019-05-09T08:07:17.549Z,59.06
2019-05-09T08:09:48.457Z,57.42
2019-05-09T08:12:19.442Z,58.67
2019-05-09T08:15:07.513Z,57.43
2019-05-09T08:17:23.894Z,57.58
2019-05-09T08:19:54.936Z,59.30
2019-05-09T08:22:27.327Z,61.49
2019-05-09T08:24:58.432Z,62.80
2019-05-09T08:27:30.323Z,65.48
2019-05-09T08:30:01.432Z,66.24
2019-05-09T08:32:32.160Z,68.54
2019-05-09T08:35:03.123Z,68.86
2019-05-09T08:37:34.938Z,69.86
2019-05-09T08:40:07.953Z,68.97
2019-05-09T08:42:39.693Z,69.03
2019-05-09T08:45:24.501Z,69.67
2019-05-09T08:47:43.127Z,71.12
2019-05-09T08:50:22.844Z,71.33
2019-05-09T08:52:53.809Z,69.95
2019-05-09T08:55:24.600Z,69.72
2019-05-09T08:57:55.349Z,70.37
2019-05-09T09:00:28.166Z,71.16
2019-05-09T09:03:00.532Z,71.88
2019-05-09T09:05:32.604Z,72.67
2019-05-09T09:08:03.305Z,72.23
2019-05-09T09:10:34.027Z,71.50
2019-05-09T09:13:08.554Z,68.83
2019-05-09T09:18:11.581Z,69.01
2019-05-09T09:20:42.501Z,69.45
2019-05-09T09:23:13.244Z,69.35
2019-05-09T09:25:43.928Z,68.77
2019-05-09T09:28:14.916Z,68.27
2019-05-09T09:30:48.116Z,68.07
2019-05-09T09:33:18.665Z,67.16
2019-05-09T09:35:49.551Z,65.91
2019-05-09T09:38:20.380Z,67.61
2019-05-09T09:40:51.148Z,64.37
2019-05-09T09:43:21.972Z,65.81
2019-05-09T09:46:06.107Z,63.72
2019-05-09T09:48:25.409Z,63.93
2019-05-09T09:50:58.025Z,62.84
2019-05-09T09:53:28.832Z,61.34
2019-05-09T09:56:00.340Z,59.62
2019-05-09T09:58:31.124Z,61.55
2019-05-09T10:01:23.567Z,59.63
2019-05-09T10:04:19.133Z,59.65
2019-05-09T10:06:38.781Z,56.97
2019-05-09T10:09:10.854Z,56.25
2019-05-09T10:11:41.650Z,56.52
2019-05-09T10:14:15.629Z,55.63
2019-05-09T10:17:04.432Z,53.81
2019-05-09T10:19:43.119Z,55.66
2019-05-09T10:22:23.371Z,54.41
2019-05-09T10:24:49.304Z,54.89
2019-05-09T10:27:20.211Z,54.20
2019-05-09T10:29:50.952Z,52.95
2019-05-09T10:32:21.665Z,52.48
2019-05-09T10:34:52.353Z,50.65
2019-05-09T10:37:23.121Z,52.30
2019-05-09T10:39:54.204Z,50.39
2019-05-09T10:42:43.954Z,52.03
2019-05-09T10:45:42.805Z,51.51
2019-05-09T10:48:13.608Z,51.72
2019-05-09T10:50:46.085Z,51.26
2019-05-09T10:53:18.016Z,50.81
2019-05-09T10:55:49.033Z,50.60
2019-05-09T10:58:23.386Z,49.81
2019-05-09T11:00:52.487Z,49.53
2019-05-09T11:03:23.530Z,51.53
2019-05-09T11:05:54.533Z,52.00
2019-05-09T11:08:25.222Z,52.84
2019-05-09T11:10:58.003Z,52.67
2019-05-09T11:13:28.890Z,53.20
2019-05-09T11:15:59.560Z,54.73
2019-05-09T11:18:30.452Z,57.71
2019-05-09T11:21:01.155Z,61.56
2019-05-09T11:23:31.892Z,64.07
2019-05-09T11:26:03.179Z,65.97
2019-05-09T11:28:33.902Z,68.93
2019-05-09T11:31:08.173Z,69.49
2019-05-09T11:33:38.860Z,70.92
2019-05-09T11:36:10.006Z,73.09
2019-05-09T11:38:43.958Z,73.79
2019-05-09T11:41:13.335Z,74.14
2019-05-09T11:43:44.071Z,75.06
2019-05-09T11:46:14.778Z,73.87
2019-05-09T11:48:45.551Z,74.28
2019-05-09T11:51:20.270Z,75.43
2019-05-09T11:53:48.985Z,74.75
2019-05-09T11:56:20.211Z,75.53
2019-05-09T11:58:51.332Z,75.57
2019-05-09T12:01:22.444Z,75.91
2019-05-09T12:03:53.348Z,76.33
2019-05-09T12:06:24.043Z,76.48
2019-05-09T12:08:54.965Z,76.66
2019-05-09T12:11:25.878Z,77.15
2019-05-09T12:13:58.172Z,77.67
2019-05-09T12:16:29.290Z,77.36
2019-05-09T12:18:59.995Z,78.64
2019-05-09T12:21:30.815Z,77.81
2019-05-09T12:24:01.637Z,76.87
2019-05-09T12:26:32.392Z,76.02
2019-05-09T12:29:03.351Z,77.20
2019-05-09T12:31:34.695Z,77.50
2019-05-09T12:34:05.601Z,76.87
2019-05-09T12:36:39.497Z,76.61
2019-05-09T12:39:09.180Z,75.43
2019-05-09T12:41:40.099Z,76.45
2019-05-09T12:44:10.853Z,74.70
2019-05-09T12:46:41.549Z,72.64
2019-05-09T12:49:13.729Z,72.29
2019-05-09T12:51:44.415Z,74.01
2019-05-09T12:54:15.252Z,72.66
2019-05-09T12:56:48.367Z,73.92
2019-05-09T12:59:18.957Z,73.33
2019-05-09T13:01:49.772Z,72.96
2019-05-09T13:04:20.841Z,73.55
2019-05-09T13:06:51.700Z,73.42
2019-05-09T13:09:22.428Z,72.71
2019-05-09T13:11:53.123Z,72.53
2019-05-09T13:14:23.911Z,74.21
2019-05-09T13:17:17.952Z,71.18
2019-05-09T13:19:49.302Z,71.38
2019-05-09T13:22:20.348Z,71.14
2019-05-09T13:24:51.094Z,72.78
2019-05-09T13:27:21.813Z,73.47
2019-05-09T13:29:52.884Z,72.57
2019-05-09T13:32:23.852Z,73.44
2019-05-09T13:34:54.589Z,74.10
2019-05-09T13:37:29.327Z,75.35
2019-05-09T13:39:59.651Z,74.49
2019-05-09T13:42:30.864Z,74.11
2019-05-09T13:45:01.703Z,74.05
2019-05-09T13:47:32.428Z,73.29
2019-05-09T13:50:03.226Z,72.70
2019-05-09T13:52:33.920Z,71.42
2019-05-09T13:55:04.678Z,72.01
2019-05-09T13:57:35.555Z,72.79
2019-05-09T14:00:08.749Z,72.29
2019-05-09T14:02:39.377Z,71.68
2019-05-09T14:05:10.383Z,72.15
2019-05-09T14:07:41.197Z,70.69
2019-05-09T14:10:12.558Z,71.45
2019-05-09T14:12:43.251Z,68.69
2019-05-09T14:15:14.066Z,68.66
2019-05-09T14:17:50.867Z,66.89
2019-05-09T14:20:20.434Z,68.22
2019-05-09T14:22:51.146Z,65.76
2019-05-09T14:25:21.869Z,68.94
2019-05-09T14:27:52.730Z,68.91
2019-05-09T14:30:23.837Z,68.96
2019-05-09T14:32:54.552Z,67.14
2019-05-09T14:35:27.661Z,64.78
2019-05-09T14:37:59.187Z,64.53
2019-05-09T14:40:31.024Z,65.89
2019-05-09T14:43:01.773Z,65.38
2019-05-09T14:45:32.890Z,63.81
2019-05-09T14:48:03.622Z,63.83
2019-05-09T14:50:34.354Z,63.93
2019-05-09T14:53:07.858Z,64.94
2019-05-09T14:55:38.795Z,65.41
2019-05-09T14:58:10.235Z,67.09
2019-05-09T15:00:40.960Z,67.79
2019-05-09T15:03:11.987Z,69.66
2019-05-09T15:05:42.741Z,68.16
2019-05-09T15:08:13.528Z,69.52
2019-05-09T15:10:44.623Z,70.94
2019-05-09T15:13:15.340Z,71.14
2019-05-09T15:15:47.988Z,72.07
2019-05-09T15:18:18.441Z,72.58
2019-05-09T15:20:49.146Z,72.43
2019-05-09T15:23:19.937Z,71.68
2019-05-09T15:25:50.704Z,69.57
2019-05-09T15:28:35.049Z,68.45
2019-05-09T15:31:10.057Z,67.48
2019-05-09T15:33:42.682Z,67.69
2019-05-09T15:36:13.365Z,67.63
2019-05-09T15:38:44.286Z,66.83
2019-05-09T15:41:15.194Z,66.05
2019-05-09T15:43:48.447Z,67.61
2019-05-09T15:46:24.018Z,67.68
2019-05-09T15:48:54.776Z,67.92
2019-05-09T15:51:27.825Z,67.33
2019-05-09T15:53:58.288Z,68.26
2019-05-09T15:56:29.152Z,66.85
2019-05-09T15:59:00.109Z,67.92
2019-05-09T16:01:30.935Z,68.88
2019-05-09T16:04:01.771Z,70.34
2019-05-09T16:06:33.768Z,71.63
2019-05-09T16:09:11.351Z,73.03
2019-05-09T16:11:38.559Z,73.89
2019-05-09T16:14:09.356Z,74.65
2019-05-09T16:16:40.045Z,75.29
2019-05-09T16:19:11.222Z,75.82
2019-05-09T16:21:42.495Z,76.64
2019-05-09T16:24:15.083Z,77.19
2019-05-09T16:26:48.578Z,77.22
2019-05-09T16:29:18.668Z,76.37
2019-05-09T16:31:50.466Z,76.00
2019-05-09T16:34:21.452Z,73.41
2019-05-09T16:36:52.160Z,73.08
2019-05-09T16:39:22.899Z,74.31
2019-05-09T16:41:54.084Z,74.73
2019-05-09T16:44:26.461Z,74.99
2019-05-09T16:46:57.754Z,74.32
2019-05-09T16:49:29.472Z,73.08
2019-05-09T16:52:00.200Z,73.84
2019-05-09T16:54:34.677Z,73.77
2019-05-09T16:57:08.086Z,74.88
2019-05-09T16:59:38.837Z,75.45
2019-05-09T17:02:18.722Z,76.34
2019-05-09T17:04:42.504Z,76.62
2019-05-09T17:07:13.526Z,76.77
2019-05-09T17:09:48.354Z,77.69
2019-05-09T17:12:18.739Z,79.11
2019-05-09T17:14:49.484Z,78.47
2019-05-09T17:17:20.252Z,78.35
2019-05-09T17:19:51.193Z,78.95
2019-05-09T17:22:40.869Z,79.35
2019-05-09T17:25:11.588Z,78.74
2019-05-09T17:27:42.521Z,78.04
2019-05-09T17:30:13.389Z,77.55
2019-05-09T17:32:44.256Z,78.82
2019-05-09T17:35:15.131Z,79.32
2019-05-09T17:37:48.103Z,79.17
2019-05-09T17:40:19.317Z,79.77
2019-05-09T17:42:50.100Z,80.07
2019-05-09T17:45:20.819Z,79.79
2019-05-09T17:47:51.943Z,79.66
2019-05-09T17:50:23.020Z,78.76
2019-05-09T17:52:54.152Z,78.89
2019-05-09T17:55:24.867Z,77.82
2019-05-09T17:57:55.655Z,77.40
2019-05-09T18:00:27.963Z,78.45
2019-05-09T18:02:58.883Z,78.27
2019-05-09T18:05:30.476Z,77.67
2019-05-09T18:08:01.268Z,77.83
2019-05-09T18:10:32.080Z,78.29
2019-05-09T18:13:02.868Z,79.04
2019-05-09T18:15:33.684Z,79.37
2019-05-09T18:18:04.445Z,80.17
2019-05-09T18:20:37.742Z,80.34
2019-05-09T18:23:08.349Z,80.58
2019-05-09T18:25:39.347Z,80.93
2019-05-09T18:28:10.119Z,80.45
2019-05-09T18:30:40.843Z,79.95
2019-05-09T18:33:20.531Z,80.06
2019-05-09T18:38:48.462Z,79.54
2019-05-09T18:41:19.454Z,79.94
2019-05-09T18:43:50.173Z,80.43
2019-05-09T18:46:21.649Z,81.03
2019-05-09T18:48:52.419Z,81.40
2019-05-09T18:51:23.334Z,81.33
2019-05-09T18:53:54.262Z,81.14
2019-05-09T18:56:25.074Z,81.25
2019-05-09T18:58:55.899Z,81.67
2019-05-09T19:01:27.121Z,81.67
2019-05-09T19:03:58.080Z,81.13
2019-05-09T19:06:28.926Z,80.42
2019-05-09T19:08:59.803Z,80.63
2019-05-09T19:11:30.696Z,80.26
2019-05-09T19:14:01.982Z,79.88
2019-05-09T19:16:39.221Z,79.13
2019-05-09T19:19:27.509Z,79.80
2019-05-09T19:22:04.632Z,79.51
2019-05-09T19:24:33.443Z,78.80
2019-05-09T19:27:04.184Z,79.11
2019-05-09T19:29:35.109Z,78.87
2019-05-09T19:32:05.845Z,79.03
2019-05-09T19:34:36.664Z,77.98
2019-05-09T19:37:07.651Z,78.44
2019-05-09T19:39:38.377Z,78.19
2019-05-09T19:42:09.155Z,77.89
2019-05-09T19:44:39.851Z,77.02
2019-05-09T19:47:10.606Z,76.57
2019-05-09T19:49:41.551Z,76.69
2019-05-09T19:52:12.278Z,76.85
2019-05-09T19:54:43.135Z,76.22
2019-05-09T19:57:14.370Z,76.50
2019-05-09T19:59:46.753Z,76.62
2019-05-09T20:02:17.947Z,76.45
2019-05-09T20:04:48.759Z,76.55
2019-05-09T20:07:19.751Z,76.52
2019-05-09T20:09:56.143Z,76.42
2019-05-09T20:12:36.661Z,76.63
2019-05-09T20:15:07.876Z,75.55
2019-05-09T20:17:38.707Z,75.17
2019-05-09T20:20:09.936Z,74.90
2019-05-09T20:22:52.031Z,75.15
2019-05-09T20:25:13.252Z,76.12
2019-05-09T20:27:44.194Z,76.63
2019-05-09T20:30:15.112Z,77.20
2019-05-09T20:32:45.893Z,77.15
2019-05-09T20:35:16.578Z,77.55
2019-05-09T20:37:47.764Z,78.23
2019-05-09T20:40:19.654Z,78.32
2019-05-09T20:42:50.573Z,77.95
2019-05-09T20:45:22.432Z,77.68
2019-05-09T20:47:53.426Z,77.96
2019-05-09T20:50:24.515Z,78.01
2019-05-09T20:53:08.511Z,77.67
2019-05-09T20:55:28.046Z,76.99
2019-05-09T20:57:59.076Z,76.51
